sensor_id;sensor_type;location;lat;lon;timestamp;P1;durP1;ratioP1;P2;durP2;ratioP2
75620;SDS011;64574;48.506;-2.750;2023-03-23T00:01:11;20.45;;;2.80;;
75620;SDS011;64574;48.506;-2.750;2023-03-23T00:03:39;17.08;;;2.40;;
75620;SDS011;64574;48.506;-2.750;2023-03-23T00:08:32;23.30;;;3.13;;
75620;SDS011;64574;48.506;-2.750;2023-03-23T00:11:09;18.52;;;2.70;;
75620;SDS011;64574;48.506;-2.750;2023-03-23T00:13:44;17.48;;;2.90;;
75620;SDS011;64574;48.506;-2.750;2023-03-23T00:16:11;17.00;;;2.60;;
75620;SDS011;64574;48.506;-2.750;2023-03-23T00:18:44;15.20;;;2.40;;
75620;SDS011;64574;48.506;-2.750;2023-03-23T00:21:17;21.30;;;2.95;;
75620;SDS011;64574;48.506;-2.750;2023-03-23T00:23:44;24.98;;;3.50;;
75620;SDS011;64574;48.506;-2.750;2023-03-23T00:26:10;17.02;;;2.70;;
75620;SDS011;64574;48.506;-2.750;2023-03-23T00:28:36;20.02;;;3.33;;
75620;SDS011;64574;48.506;-2.750;2023-03-23T00:31:04;12.73;;;2.13;;
75620;SDS011;64574;48.506;-2.750;2023-03-23T00:33:31;15.30;;;2.20;;
75620;SDS011;64574;48.506;-2.750;2023-03-23T00:36:06;13.32;;;2.97;;
75620;SDS011;64574;48.506;-2.750;2023-03-23T00:41:02;15.68;;;3.00;;
75620;SDS011;64574;48.506;-2.750;2023-03-23T00:43:28;12.38;;;2.20;;
75620;SDS011;64574;48.506;-2.750;2023-03-23T00:45:55;12.35;;;2.40;;
75620;SDS011;64574;48.506;-2.750;2023-03-23T00:48:23;17.00;;;2.50;;
75620;SDS011;64574;48.506;-2.750;2023-03-23T00:50:49;19.08;;;3.50;;
75620;SDS011;64574;48.506;-2.750;2023-03-23T00:53:16;15.43;;;3.03;;
75620;SDS011;64574;48.506;-2.750;2023-03-23T00:55:43;19.83;;;2.88;;
75620;SDS011;64574;48.506;-2.750;2023-03-23T00:58:11;17.00;;;2.60;;
75620;SDS011;64574;48.506;-2.750;2023-03-23T01:03:04;12.07;;;2.45;;
75620;SDS011;64574;48.506;-2.750;2023-03-23T01:05:34;13.27;;;2.42;;
75620;SDS011;64574;48.506;-2.750;2023-03-23T01:08:01;11.32;;;2.20;;
75620;SDS011;64574;48.506;-2.750;2023-03-23T01:10:27;9.38;;;1.85;;
75620;SDS011;64574;48.506;-2.750;2023-03-23T01:12:53;13.82;;;2.22;;
75620;SDS011;64574;48.506;-2.750;2023-03-23T01:15:19;12.95;;;1.95;;
75620;SDS011;64574;48.506;-2.750;2023-03-23T01:17:45;10.82;;;1.77;;
75620;SDS011;64574;48.506;-2.750;2023-03-23T01:20:12;9.77;;;2.08;;
75620;SDS011;64574;48.506;-2.750;2023-03-23T01:22:39;13.32;;;2.00;;
75620;SDS011;64574;48.506;-2.750;2023-03-23T01:25:06;11.80;;;2.13;;
75620;SDS011;64574;48.506;-2.750;2023-03-23T01:27:32;7.78;;;1.85;;
75620;SDS011;64574;48.506;-2.750;2023-03-23T01:29:58;10.02;;;2.10;;
75620;SDS011;64574;48.506;-2.750;2023-03-23T01:32:24;5.13;;;0.82;;
75620;SDS011;64574;48.506;-2.750;2023-03-23T01:34:49;7.85;;;1.10;;
75620;SDS011;64574;48.506;-2.750;2023-03-23T01:37:15;5.45;;;1.33;;
75620;SDS011;64574;48.506;-2.750;2023-03-23T01:39:41;5.65;;;1.23;;
75620;SDS011;64574;48.506;-2.750;2023-03-23T01:42:10;5.18;;;0.95;;
75620;SDS011;64574;48.506;-2.750;2023-03-23T01:47:01;6.07;;;1.08;;
75620;SDS011;64574;48.506;-2.750;2023-03-23T01:49:28;10.55;;;1.55;;
75620;SDS011;64574;48.506;-2.750;2023-03-23T01:52:08;12.63;;;1.80;;
75620;SDS011;64574;48.506;-2.750;2023-03-23T01:54:42;5.85;;;1.33;;
75620;SDS011;64574;48.506;-2.750;2023-03-23T01:57:11;8.95;;;1.33;;
75620;SDS011;64574;48.506;-2.750;2023-03-23T01:59:42;10.18;;;1.67;;
75620;SDS011;64574;48.506;-2.750;2023-03-23T02:02:11;10.57;;;1.92;;
75620;SDS011;64574;48.506;-2.750;2023-03-23T02:04:37;10.10;;;1.65;;
75620;SDS011;64574;48.506;-2.750;2023-03-23T02:07:04;6.75;;;1.42;;
75620;SDS011;64574;48.506;-2.750;2023-03-23T02:09:29;12.57;;;1.67;;
75620;SDS011;64574;48.506;-2.750;2023-03-23T02:11:55;9.50;;;1.52;;
75620;SDS011;64574;48.506;-2.750;2023-03-23T02:14:22;10.52;;;1.70;;
75620;SDS011;64574;48.506;-2.750;2023-03-23T02:17:04;10.05;;;1.65;;
75620;SDS011;64574;48.506;-2.750;2023-03-23T02:36:23;8.50;;;1.35;;
75620;SDS011;64574;48.506;-2.750;2023-03-23T02:41:28;10.40;;;1.73;;
75620;SDS011;64574;48.506;-2.750;2023-03-23T02:43:56;15.93;;;2.30;;
75620;SDS011;64574;48.506;-2.750;2023-03-23T02:46:23;9.00;;;1.60;;
75620;SDS011;64574;48.506;-2.750;2023-03-23T02:48:50;12.68;;;1.73;;
75620;SDS011;64574;48.506;-2.750;2023-03-23T02:51:20;11.90;;;2.00;;
75620;SDS011;64574;48.506;-2.750;2023-03-23T02:53:47;10.77;;;2.13;;
75620;SDS011;64574;48.506;-2.750;2023-03-23T02:56:17;12.80;;;1.98;;
75620;SDS011;64574;48.506;-2.750;2023-03-23T02:58:43;10.40;;;1.73;;
75620;SDS011;64574;48.506;-2.750;2023-03-23T03:03:41;12.68;;;1.70;;
75620;SDS011;64574;48.506;-2.750;2023-03-23T03:06:10;12.75;;;2.72;;
75620;SDS011;64574;48.506;-2.750;2023-03-23T03:11:16;10.68;;;1.60;;
75620;SDS011;64574;48.506;-2.750;2023-03-23T03:16:57;12.77;;;1.77;;
75620;SDS011;64574;48.506;-2.750;2023-03-23T03:19:35;12.35;;;1.77;;
75620;SDS011;64574;48.506;-2.750;2023-03-23T03:22:05;12.52;;;2.25;;
75620;SDS011;64574;48.506;-2.750;2023-03-23T03:24:32;10.50;;;1.80;;
75620;SDS011;64574;48.506;-2.750;2023-03-23T03:27:02;14.55;;;2.30;;
75620;SDS011;64574;48.506;-2.750;2023-03-23T03:29:35;11.75;;;1.77;;
75620;SDS011;64574;48.506;-2.750;2023-03-23T03:32:03;13.68;;;2.00;;
75620;SDS011;64574;48.506;-2.750;2023-03-23T03:34:33;12.95;;;2.08;;
75620;SDS011;64574;48.506;-2.750;2023-03-23T03:36:59;13.48;;;2.42;;
75620;SDS011;64574;48.506;-2.750;2023-03-23T03:39:26;15.18;;;2.20;;
75620;SDS011;64574;48.506;-2.750;2023-03-23T03:41:52;13.10;;;2.30;;
75620;SDS011;64574;48.506;-2.750;2023-03-23T03:44:19;17.25;;;2.97;;
75620;SDS011;64574;48.506;-2.750;2023-03-23T03:46:44;17.08;;;1.75;;
75620;SDS011;64574;48.506;-2.750;2023-03-23T03:49:10;17.92;;;3.35;;
75620;SDS011;64574;48.506;-2.750;2023-03-23T03:51:40;18.83;;;2.42;;
75620;SDS011;64574;48.506;-2.750;2023-03-23T03:54:06;13.05;;;2.53;;
75620;SDS011;64574;48.506;-2.750;2023-03-23T03:56:31;23.73;;;2.75;;
75620;SDS011;64574;48.506;-2.750;2023-03-23T03:59:00;15.80;;;2.47;;
75620;SDS011;64574;48.506;-2.750;2023-03-23T04:01:26;15.98;;;3.33;;
75620;SDS011;64574;48.506;-2.750;2023-03-23T04:03:53;17.20;;;2.67;;
75620;SDS011;64574;48.506;-2.750;2023-03-23T04:06:20;17.48;;;3.00;;
75620;SDS011;64574;48.506;-2.750;2023-03-23T04:08:46;12.43;;;2.58;;
75620;SDS011;64574;48.506;-2.750;2023-03-23T04:11:12;16.95;;;2.42;;
75620;SDS011;64574;48.506;-2.750;2023-03-23T04:13:39;16.73;;;2.33;;
75620;SDS011;64574;48.506;-2.750;2023-03-23T04:16:06;16.40;;;2.60;;
75620;SDS011;64574;48.506;-2.750;2023-03-23T04:18:32;15.40;;;2.17;;
75620;SDS011;64574;48.506;-2.750;2023-03-23T04:20:59;15.88;;;2.60;;
75620;SDS011;64574;48.506;-2.750;2023-03-23T04:23:27;16.10;;;2.90;;
75620;SDS011;64574;48.506;-2.750;2023-03-23T04:25:55;12.23;;;2.70;;
75620;SDS011;64574;48.506;-2.750;2023-03-23T04:28:23;18.35;;;2.88;;
75620;SDS011;64574;48.506;-2.750;2023-03-23T04:30:52;17.20;;;3.05;;
75620;SDS011;64574;48.506;-2.750;2023-03-23T04:33:19;18.67;;;3.03;;
75620;SDS011;64574;48.506;-2.750;2023-03-23T04:35:46;16.02;;;2.67;;
75620;SDS011;64574;48.506;-2.750;2023-03-23T04:38:13;16.83;;;2.55;;
75620;SDS011;64574;48.506;-2.750;2023-03-23T04:40:41;18.80;;;2.85;;
75620;SDS011;64574;48.506;-2.750;2023-03-23T04:43:08;15.85;;;2.40;;
75620;SDS011;64574;48.506;-2.750;2023-03-23T04:45:34;16.77;;;2.88;;
75620;SDS011;64574;48.506;-2.750;2023-03-23T04:48:02;19.83;;;2.97;;
75620;SDS011;64574;48.506;-2.750;2023-03-23T04:50:30;18.02;;;2.67;;
75620;SDS011;64574;48.506;-2.750;2023-03-23T04:52:58;19.17;;;3.08;;
75620;SDS011;64574;48.506;-2.750;2023-03-23T04:55:29;17.00;;;2.75;;
75620;SDS011;64574;48.506;-2.750;2023-03-23T04:57:57;18.58;;;2.65;;
75620;SDS011;64574;48.506;-2.750;2023-03-23T05:00:26;14.95;;;3.00;;
75620;SDS011;64574;48.506;-2.750;2023-03-23T05:02:52;21.42;;;3.00;;
75620;SDS011;64574;48.506;-2.750;2023-03-23T05:05:20;21.95;;;2.70;;
75620;SDS011;64574;48.506;-2.750;2023-03-23T05:07:46;18.05;;;3.35;;
75620;SDS011;64574;48.506;-2.750;2023-03-23T05:10:13;13.57;;;2.40;;
75620;SDS011;64574;48.506;-2.750;2023-03-23T05:12:40;15.45;;;2.60;;
75620;SDS011;64574;48.506;-2.750;2023-03-23T05:15:06;13.18;;;2.88;;
75620;SDS011;64574;48.506;-2.750;2023-03-23T05:17:33;15.07;;;2.30;;
75620;SDS011;64574;48.506;-2.750;2023-03-23T05:19:59;15.77;;;2.55;;
75620;SDS011;64574;48.506;-2.750;2023-03-23T05:22:26;14.20;;;2.22;;
75620;SDS011;64574;48.506;-2.750;2023-03-23T05:24:53;19.70;;;3.00;;
75620;SDS011;64574;48.506;-2.750;2023-03-23T05:27:19;19.60;;;2.78;;
75620;SDS011;64574;48.506;-2.750;2023-03-23T05:29:45;14.63;;;2.28;;
75620;SDS011;64574;48.506;-2.750;2023-03-23T05:32:14;13.57;;;3.10;;
75620;SDS011;64574;48.506;-2.750;2023-03-23T05:34:41;19.25;;;3.15;;
75620;SDS011;64574;48.506;-2.750;2023-03-23T05:37:08;15.63;;;2.30;;
75620;SDS011;64574;48.506;-2.750;2023-03-23T05:39:34;17.50;;;2.90;;
75620;SDS011;64574;48.506;-2.750;2023-03-23T05:42:00;25.02;;;4.38;;
75620;SDS011;64574;48.506;-2.750;2023-03-23T05:44:26;16.08;;;3.30;;
75620;SDS011;64574;48.506;-2.750;2023-03-23T05:46:52;19.05;;;3.55;;
75620;SDS011;64574;48.506;-2.750;2023-03-23T05:49:17;19.25;;;2.53;;
75620;SDS011;64574;48.506;-2.750;2023-03-23T05:51:44;18.70;;;2.95;;
75620;SDS011;64574;48.506;-2.750;2023-03-23T05:56:36;18.73;;;3.38;;
75620;SDS011;64574;48.506;-2.750;2023-03-23T05:59:02;20.08;;;2.88;;
75620;SDS011;64574;48.506;-2.750;2023-03-23T06:01:28;23.00;;;3.50;;
75620;SDS011;64574;48.506;-2.750;2023-03-23T06:03:54;20.00;;;3.45;;
75620;SDS011;64574;48.506;-2.750;2023-03-23T06:06:23;19.60;;;3.08;;
75620;SDS011;64574;48.506;-2.750;2023-03-23T06:08:49;17.67;;;3.25;;
75620;SDS011;64574;48.506;-2.750;2023-03-23T06:11:15;16.60;;;3.08;;
75620;SDS011;64574;48.506;-2.750;2023-03-23T06:13:41;19.95;;;3.30;;
75620;SDS011;64574;48.506;-2.750;2023-03-23T06:16:07;13.70;;;2.40;;
75620;SDS011;64574;48.506;-2.750;2023-03-23T06:18:33;15.82;;;3.28;;
75620;SDS011;64574;48.506;-2.750;2023-03-23T06:21:01;23.83;;;3.45;;
75620;SDS011;64574;48.506;-2.750;2023-03-23T06:23:28;18.55;;;3.75;;
75620;SDS011;64574;48.506;-2.750;2023-03-23T06:25:55;14.68;;;2.55;;
75620;SDS011;64574;48.506;-2.750;2023-03-23T06:28:24;22.35;;;2.83;;
75620;SDS011;64574;48.506;-2.750;2023-03-23T06:30:50;14.30;;;2.63;;
75620;SDS011;64574;48.506;-2.750;2023-03-23T06:33:15;23.83;;;3.53;;
75620;SDS011;64574;48.506;-2.750;2023-03-23T06:35:42;25.15;;;3.63;;
75620;SDS011;64574;48.506;-2.750;2023-03-23T06:38:08;16.42;;;3.28;;
75620;SDS011;64574;48.506;-2.750;2023-03-23T06:40:34;24.15;;;3.72;;
75620;SDS011;64574;48.506;-2.750;2023-03-23T06:43:01;18.95;;;3.17;;
75620;SDS011;64574;48.506;-2.750;2023-03-23T06:45:29;19.83;;;3.35;;
75620;SDS011;64574;48.506;-2.750;2023-03-23T06:47:55;22.20;;;3.90;;
75620;SDS011;64574;48.506;-2.750;2023-03-23T06:50:21;21.33;;;2.97;;
75620;SDS011;64574;48.506;-2.750;2023-03-23T06:52:49;18.95;;;2.70;;
75620;SDS011;64574;48.506;-2.750;2023-03-23T06:55:16;14.90;;;3.08;;
75620;SDS011;64574;48.506;-2.750;2023-03-23T06:57:42;18.02;;;3.20;;
75620;SDS011;64574;48.506;-2.750;2023-03-23T07:00:10;24.17;;;3.08;;
75620;SDS011;64574;48.506;-2.750;2023-03-23T07:02:38;15.98;;;3.08;;
75620;SDS011;64574;48.506;-2.750;2023-03-23T07:05:08;21.33;;;3.30;;
75620;SDS011;64574;48.506;-2.750;2023-03-23T07:10:02;17.75;;;2.90;;
75620;SDS011;64574;48.506;-2.750;2023-03-23T07:12:28;18.75;;;2.72;;
75620;SDS011;64574;48.506;-2.750;2023-03-23T07:14:54;20.77;;;2.70;;
75620;SDS011;64574;48.506;-2.750;2023-03-23T07:17:20;18.60;;;3.00;;
75620;SDS011;64574;48.506;-2.750;2023-03-23T07:19:46;18.55;;;3.13;;
75620;SDS011;64574;48.506;-2.750;2023-03-23T07:22:11;21.02;;;3.47;;
75620;SDS011;64574;48.506;-2.750;2023-03-23T07:24:37;15.95;;;2.90;;
75620;SDS011;64574;48.506;-2.750;2023-03-23T07:27:03;17.92;;;3.47;;
75620;SDS011;64574;48.506;-2.750;2023-03-23T07:29:29;19.48;;;2.97;;
75620;SDS011;64574;48.506;-2.750;2023-03-23T07:31:54;14.55;;;2.78;;
75620;SDS011;64574;48.506;-2.750;2023-03-23T07:34:21;18.80;;;2.38;;
75620;SDS011;64574;48.506;-2.750;2023-03-23T07:36:47;18.48;;;3.05;;
75620;SDS011;64574;48.506;-2.750;2023-03-23T07:39:13;24.42;;;3.28;;
75620;SDS011;64574;48.506;-2.750;2023-03-23T07:41:39;25.95;;;3.88;;
75620;SDS011;64574;48.506;-2.750;2023-03-23T07:44:04;20.27;;;3.03;;
75620;SDS011;64574;48.506;-2.750;2023-03-23T07:46:31;20.33;;;4.10;;
75620;SDS011;64574;48.506;-2.750;2023-03-23T07:48:57;24.38;;;3.38;;
75620;SDS011;64574;48.506;-2.750;2023-03-23T07:51:23;18.67;;;3.55;;
75620;SDS011;64574;48.506;-2.750;2023-03-23T07:53:49;19.48;;;3.85;;
75620;SDS011;64574;48.506;-2.750;2023-03-23T07:56:16;22.92;;;3.28;;
75620;SDS011;64574;48.506;-2.750;2023-03-23T07:58:44;21.35;;;3.20;;
75620;SDS011;64574;48.506;-2.750;2023-03-23T08:01:10;23.08;;;3.67;;
75620;SDS011;64574;48.506;-2.750;2023-03-23T08:03:37;14.85;;;3.00;;
75620;SDS011;64574;48.506;-2.750;2023-03-23T08:06:03;21.73;;;3.50;;
75620;SDS011;64574;48.506;-2.750;2023-03-23T08:08:30;25.90;;;3.33;;
75620;SDS011;64574;48.506;-2.750;2023-03-23T08:10:56;19.30;;;3.58;;
75620;SDS011;64574;48.506;-2.750;2023-03-23T08:13:22;15.50;;;3.10;;
75620;SDS011;64574;48.506;-2.750;2023-03-23T08:15:48;21.42;;;3.28;;
75620;SDS011;64574;48.506;-2.750;2023-03-23T08:18:14;19.50;;;3.72;;
75620;SDS011;64574;48.506;-2.750;2023-03-23T08:20:40;23.27;;;3.53;;
75620;SDS011;64574;48.506;-2.750;2023-03-23T08:23:07;19.33;;;3.22;;
75620;SDS011;64574;48.506;-2.750;2023-03-23T08:25:32;20.75;;;3.20;;
75620;SDS011;64574;48.506;-2.750;2023-03-23T08:27:58;20.63;;;3.63;;
75620;SDS011;64574;48.506;-2.750;2023-03-23T08:30:26;22.25;;;3.10;;
75620;SDS011;64574;48.506;-2.750;2023-03-23T08:32:55;21.65;;;3.10;;
75620;SDS011;64574;48.506;-2.750;2023-03-23T08:35:23;13.13;;;2.40;;
75620;SDS011;64574;48.506;-2.750;2023-03-23T08:37:49;22.67;;;3.45;;
75620;SDS011;64574;48.506;-2.750;2023-03-23T08:40:19;19.33;;;3.30;;
75620;SDS011;64574;48.506;-2.750;2023-03-23T08:42:47;22.08;;;3.60;;
75620;SDS011;64574;48.506;-2.750;2023-03-23T08:45:15;14.50;;;2.83;;
75620;SDS011;64574;48.506;-2.750;2023-03-23T08:47:44;20.13;;;3.42;;
75620;SDS011;64574;48.506;-2.750;2023-03-23T08:50:13;23.48;;;3.75;;
75620;SDS011;64574;48.506;-2.750;2023-03-23T08:52:40;24.90;;;4.30;;
75620;SDS011;64574;48.506;-2.750;2023-03-23T08:55:07;19.35;;;2.92;;
75620;SDS011;64574;48.506;-2.750;2023-03-23T08:57:33;25.10;;;4.18;;
75620;SDS011;64574;48.506;-2.750;2023-03-23T08:59:59;22.38;;;3.70;;
75620;SDS011;64574;48.506;-2.750;2023-03-23T09:02:38;16.92;;;3.30;;
75620;SDS011;64574;48.506;-2.750;2023-03-23T09:05:03;23.80;;;3.47;;
75620;SDS011;64574;48.506;-2.750;2023-03-23T09:07:29;18.52;;;3.45;;
75620;SDS011;64574;48.506;-2.750;2023-03-23T09:09:55;17.63;;;3.28;;
75620;SDS011;64574;48.506;-2.750;2023-03-23T09:12:21;24.08;;;4.55;;
75620;SDS011;64574;48.506;-2.750;2023-03-23T09:14:47;19.10;;;4.45;;
75620;SDS011;64574;48.506;-2.750;2023-03-23T09:17:12;23.90;;;2.92;;
75620;SDS011;64574;48.506;-2.750;2023-03-23T09:19:38;21.73;;;3.50;;
75620;SDS011;64574;48.506;-2.750;2023-03-23T09:22:04;16.83;;;3.03;;
75620;SDS011;64574;48.506;-2.750;2023-03-23T09:24:29;18.20;;;3.83;;
75620;SDS011;64574;48.506;-2.750;2023-03-23T09:26:56;18.13;;;3.25;;
75620;SDS011;64574;48.506;-2.750;2023-03-23T09:31:49;19.00;;;2.70;;
75620;SDS011;64574;48.506;-2.750;2023-03-23T09:34:14;18.33;;;2.90;;
75620;SDS011;64574;48.506;-2.750;2023-03-23T09:36:42;24.70;;;3.42;;
75620;SDS011;64574;48.506;-2.750;2023-03-23T09:39:09;19.98;;;3.28;;
75620;SDS011;64574;48.506;-2.750;2023-03-23T09:44:17;15.52;;;3.38;;
75620;SDS011;64574;48.506;-2.750;2023-03-23T09:52:58;14.82;;;2.90;;
75620;SDS011;64574;48.506;-2.750;2023-03-23T09:55:33;16.20;;;3.15;;
75620;SDS011;64574;48.506;-2.750;2023-03-23T09:58:02;17.48;;;3.08;;
75620;SDS011;64574;48.506;-2.750;2023-03-23T10:00:36;17.55;;;3.00;;
75620;SDS011;64574;48.506;-2.750;2023-03-23T10:03:15;17.27;;;2.70;;
75620;SDS011;64574;48.506;-2.750;2023-03-23T10:08:14;22.20;;;3.78;;
75620;SDS011;64574;48.506;-2.750;2023-03-23T10:13:17;13.93;;;2.65;;
75620;SDS011;64574;48.506;-2.750;2023-03-23T10:15:50;15.35;;;2.72;;
75620;SDS011;64574;48.506;-2.750;2023-03-23T10:18:19;11.38;;;2.35;;
75620;SDS011;64574;48.506;-2.750;2023-03-23T10:20:58;12.52;;;2.35;;
75620;SDS011;64574;48.506;-2.750;2023-03-23T10:26:13;10.75;;;2.30;;
75620;SDS011;64574;48.506;-2.750;2023-03-23T10:29:07;11.18;;;2.42;;
75620;SDS011;64574;48.506;-2.750;2023-03-23T10:31:42;13.23;;;3.17;;
75620;SDS011;64574;48.506;-2.750;2023-03-23T10:37:01;13.13;;;2.35;;
75620;SDS011;64574;48.506;-2.750;2023-03-23T10:39:55;11.77;;;1.77;;
75620;SDS011;64574;48.506;-2.750;2023-03-23T10:42:24;7.55;;;1.55;;
75620;SDS011;64574;48.506;-2.750;2023-03-23T10:44:52;11.65;;;1.90;;
75620;SDS011;64574;48.506;-2.750;2023-03-23T10:47:19;9.23;;;2.13;;
75620;SDS011;64574;48.506;-2.750;2023-03-23T10:49:49;12.90;;;1.90;;
75620;SDS011;64574;48.506;-2.750;2023-03-23T10:52:26;6.38;;;1.38;;
75620;SDS011;64574;48.506;-2.750;2023-03-23T10:54:58;9.60;;;1.58;;
75620;SDS011;64574;48.506;-2.750;2023-03-23T10:57:30;10.52;;;2.58;;
75620;SDS011;64574;48.506;-2.750;2023-03-23T11:00:06;9.27;;;2.03;;
75620;SDS011;64574;48.506;-2.750;2023-03-23T11:02:45;8.82;;;2.13;;
75620;SDS011;64574;48.506;-2.750;2023-03-23T11:08:16;7.00;;;1.35;;
75620;SDS011;64574;48.506;-2.750;2023-03-23T11:13:15;5.90;;;1.10;;
75620;SDS011;64574;48.506;-2.750;2023-03-23T11:15:43;11.52;;;2.00;;
75620;SDS011;64574;48.506;-2.750;2023-03-23T11:18:18;9.73;;;1.70;;
75620;SDS011;64574;48.506;-2.750;2023-03-23T11:20:46;11.43;;;2.10;;
75620;SDS011;64574;48.506;-2.750;2023-03-23T11:23:22;9.20;;;1.95;;
75620;SDS011;64574;48.506;-2.750;2023-03-23T11:25:55;10.80;;;1.70;;
75620;SDS011;64574;48.506;-2.750;2023-03-23T11:31:12;9.70;;;1.67;;
75620;SDS011;64574;48.506;-2.750;2023-03-23T11:36:28;11.32;;;1.75;;
75620;SDS011;64574;48.506;-2.750;2023-03-23T11:38:59;9.52;;;1.77;;
75620;SDS011;64574;48.506;-2.750;2023-03-23T11:41:28;10.70;;;2.08;;
75620;SDS011;64574;48.506;-2.750;2023-03-23T11:43:56;9.52;;;1.42;;
75620;SDS011;64574;48.506;-2.750;2023-03-23T11:48:56;7.18;;;1.38;;
75620;SDS011;64574;48.506;-2.750;2023-03-23T11:51:29;11.13;;;2.03;;
75620;SDS011;64574;48.506;-2.750;2023-03-23T11:56:47;9.95;;;1.98;;
75620;SDS011;64574;48.506;-2.750;2023-03-23T11:59:14;6.90;;;1.45;;
75620;SDS011;64574;48.506;-2.750;2023-03-23T12:01:53;8.95;;;1.83;;
75620;SDS011;64574;48.506;-2.750;2023-03-23T12:19:03;8.68;;;2.00;;
75620;SDS011;64574;48.506;-2.750;2023-03-23T12:21:50;12.05;;;2.35;;
75620;SDS011;64574;48.506;-2.750;2023-03-23T12:24:48;11.93;;;2.00;;
75620;SDS011;64574;48.506;-2.750;2023-03-23T12:35:49;14.90;;;2.45;;
75620;SDS011;64574;48.506;-2.750;2023-03-23T12:52:02;17.63;;;2.70;;
75620;SDS011;64574;48.506;-2.750;2023-03-23T12:57:12;14.07;;;3.17;;
75620;SDS011;64574;48.506;-2.750;2023-03-23T13:02:26;18.42;;;2.60;;
75620;SDS011;64574;48.506;-2.750;2023-03-23T13:05:06;16.23;;;2.83;;
75620;SDS011;64574;48.506;-2.750;2023-03-23T13:07:47;17.75;;;2.88;;
75620;SDS011;64574;48.506;-2.750;2023-03-23T13:10:22;16.42;;;3.05;;
75620;SDS011;64574;48.506;-2.750;2023-03-23T13:12:52;13.40;;;2.75;;
75620;SDS011;64574;48.506;-2.750;2023-03-23T13:20:43;10.90;;;2.50;;
75620;SDS011;64574;48.506;-2.750;2023-03-23T13:23:15;11.57;;;2.45;;
75620;SDS011;64574;48.506;-2.750;2023-03-23T13:25:49;16.05;;;2.50;;
75620;SDS011;64574;48.506;-2.750;2023-03-23T13:28:29;13.63;;;2.95;;
75620;SDS011;64574;48.506;-2.750;2023-03-23T13:30:58;12.48;;;2.33;;
75620;SDS011;64574;48.506;-2.750;2023-03-23T13:33:33;15.27;;;2.45;;
75620;SDS011;64574;48.506;-2.750;2023-03-23T13:36:05;7.82;;;2.25;;
75620;SDS011;64574;48.506;-2.750;2023-03-23T13:38:35;12.27;;;2.08;;
75620;SDS011;64574;48.506;-2.750;2023-03-23T13:43:36;13.05;;;2.20;;
75620;SDS011;64574;48.506;-2.750;2023-03-23T13:51:32;11.60;;;2.53;;
75620;SDS011;64574;48.506;-2.750;2023-03-23T14:01:51;12.13;;;2.13;;
75620;SDS011;64574;48.506;-2.750;2023-03-23T14:04:23;10.32;;;2.53;;
75620;SDS011;64574;48.506;-2.750;2023-03-23T14:07:08;9.40;;;2.03;;
75620;SDS011;64574;48.506;-2.750;2023-03-23T14:09:39;13.13;;;2.17;;
75620;SDS011;64574;48.506;-2.750;2023-03-23T14:12:26;13.57;;;2.92;;
75620;SDS011;64574;48.506;-2.750;2023-03-23T14:14:57;11.38;;;1.95;;
75620;SDS011;64574;48.506;-2.750;2023-03-23T14:17:29;11.55;;;2.80;;
75620;SDS011;64574;48.506;-2.750;2023-03-23T14:20:04;7.18;;;1.98;;
75620;SDS011;64574;48.506;-2.750;2023-03-23T14:22:35;8.05;;;2.33;;
75620;SDS011;64574;48.506;-2.750;2023-03-23T14:25:16;7.90;;;2.47;;
75620;SDS011;64574;48.506;-2.750;2023-03-23T14:27:43;10.18;;;2.20;;
75620;SDS011;64574;48.506;-2.750;2023-03-23T14:30:14;11.38;;;2.63;;
75620;SDS011;64574;48.506;-2.750;2023-03-23T14:32:41;13.30;;;2.47;;
75620;SDS011;64574;48.506;-2.750;2023-03-23T14:35:12;14.55;;;1.98;;
75620;SDS011;64574;48.506;-2.750;2023-03-23T14:37:51;9.10;;;2.17;;
75620;SDS011;64574;48.506;-2.750;2023-03-23T14:40:17;6.47;;;1.60;;
75620;SDS011;64574;48.506;-2.750;2023-03-23T14:42:44;13.95;;;2.20;;
75620;SDS011;64574;48.506;-2.750;2023-03-23T14:45:11;7.38;;;1.83;;
75620;SDS011;64574;48.506;-2.750;2023-03-23T14:47:57;10.45;;;1.85;;
75620;SDS011;64574;48.506;-2.750;2023-03-23T14:50:36;7.53;;;1.70;;
75620;SDS011;64574;48.506;-2.750;2023-03-23T14:53:16;7.05;;;1.20;;
75620;SDS011;64574;48.506;-2.750;2023-03-23T14:55:49;7.03;;;1.33;;
75620;SDS011;64574;48.506;-2.750;2023-03-23T14:58:17;5.93;;;1.70;;
75620;SDS011;64574;48.506;-2.750;2023-03-23T15:00:49;6.95;;;1.63;;
75620;SDS011;64574;48.506;-2.750;2023-03-23T15:03:21;7.15;;;1.42;;
75620;SDS011;64574;48.506;-2.750;2023-03-23T15:05:49;10.10;;;1.60;;
75620;SDS011;64574;48.506;-2.750;2023-03-23T15:08:24;5.78;;;1.38;;
75620;SDS011;64574;48.506;-2.750;2023-03-23T15:13:47;5.57;;;1.30;;
75620;SDS011;64574;48.506;-2.750;2023-03-23T15:18:51;3.92;;;0.88;;
75620;SDS011;64574;48.506;-2.750;2023-03-23T15:21:29;3.40;;;0.77;;
75620;SDS011;64574;48.506;-2.750;2023-03-23T15:24:00;5.30;;;1.00;;
75620;SDS011;64574;48.506;-2.750;2023-03-23T15:26:29;4.30;;;1.08;;
75620;SDS011;64574;48.506;-2.750;2023-03-23T15:31:41;4.25;;;0.98;;
75620;SDS011;64574;48.506;-2.750;2023-03-23T15:34:35;8.30;;;1.20;;
75620;SDS011;64574;48.506;-2.750;2023-03-23T15:37:04;4.47;;;0.80;;
75620;SDS011;64574;48.506;-2.750;2023-03-23T15:39:42;7.25;;;1.27;;
75620;SDS011;64574;48.506;-2.750;2023-03-23T15:42:19;6.10;;;1.40;;
75620;SDS011;64574;48.506;-2.750;2023-03-23T15:44:54;5.22;;;1.23;;
75620;SDS011;64574;48.506;-2.750;2023-03-23T15:47:21;7.00;;;1.33;;
75620;SDS011;64574;48.506;-2.750;2023-03-23T15:49:58;7.32;;;1.50;;
75620;SDS011;64574;48.506;-2.750;2023-03-23T15:52:28;7.00;;;1.42;;
75620;SDS011;64574;48.506;-2.750;2023-03-23T15:54:54;9.07;;;1.35;;
75620;SDS011;64574;48.506;-2.750;2023-03-23T15:57:20;5.03;;;1.60;;
75620;SDS011;64574;48.506;-2.750;2023-03-23T15:59:45;5.93;;;1.50;;
75620;SDS011;64574;48.506;-2.750;2023-03-23T16:02:16;7.22;;;1.30;;
75620;SDS011;64574;48.506;-2.750;2023-03-23T16:04:48;6.03;;;1.20;;
75620;SDS011;64574;48.506;-2.750;2023-03-23T16:07:14;5.65;;;1.20;;
75620;SDS011;64574;48.506;-2.750;2023-03-23T16:09:41;7.45;;;1.50;;
75620;SDS011;64574;48.506;-2.750;2023-03-23T16:12:10;7.90;;;1.77;;
75620;SDS011;64574;48.506;-2.750;2023-03-23T16:14:39;4.95;;;1.08;;
75620;SDS011;64574;48.506;-2.750;2023-03-23T16:17:05;5.25;;;1.42;;
75620;SDS011;64574;48.506;-2.750;2023-03-23T16:19:35;5.75;;;1.17;;
75620;SDS011;64574;48.506;-2.750;2023-03-23T16:22:01;4.68;;;1.10;;
75620;SDS011;64574;48.506;-2.750;2023-03-23T16:24:26;4.28;;;1.20;;
75620;SDS011;64574;48.506;-2.750;2023-03-23T16:26:52;4.85;;;1.15;;
75620;SDS011;64574;48.506;-2.750;2023-03-23T16:29:18;4.88;;;1.00;;
75620;SDS011;64574;48.506;-2.750;2023-03-23T16:31:43;5.03;;;1.00;;
75620;SDS011;64574;48.506;-2.750;2023-03-23T16:34:09;2.92;;;1.00;;
75620;SDS011;64574;48.506;-2.750;2023-03-23T16:36:35;4.22;;;0.70;;
75620;SDS011;64574;48.506;-2.750;2023-03-23T16:39:01;4.38;;;0.77;;
75620;SDS011;64574;48.506;-2.750;2023-03-23T16:41:27;5.90;;;1.00;;
75620;SDS011;64574;48.506;-2.750;2023-03-23T16:43:52;3.80;;;0.98;;
75620;SDS011;64574;48.506;-2.750;2023-03-23T16:46:18;2.40;;;0.80;;
75620;SDS011;64574;48.506;-2.750;2023-03-23T16:48:47;3.00;;;0.85;;
75620;SDS011;64574;48.506;-2.750;2023-03-23T16:51:12;2.30;;;0.93;;
75620;SDS011;64574;48.506;-2.750;2023-03-23T16:53:38;2.58;;;0.93;;
75620;SDS011;64574;48.506;-2.750;2023-03-23T16:56:07;2.10;;;0.60;;
75620;SDS011;64574;48.506;-2.750;2023-03-23T16:58:33;3.22;;;0.80;;
75620;SDS011;64574;48.506;-2.750;2023-03-23T17:00:59;2.10;;;0.80;;
75620;SDS011;64574;48.506;-2.750;2023-03-23T17:03:25;3.28;;;0.73;;
75620;SDS011;64574;48.506;-2.750;2023-03-23T17:05:51;2.03;;;0.63;;
75620;SDS011;64574;48.506;-2.750;2023-03-23T17:08:17;1.35;;;0.43;;